TimePDT,TemperatureF,Dew PointF,Humidity,Sea Level PressureIn,VisibilityMPH,Wind Direction,Wind SpeedMPH,Gust SpeedMPH,PrecipitationIn,Events,Conditions,WindDirDegrees,DateUTC
12:54 AM,-9999,-9999,N/A,-9999,-9999.0,SW,3.5,-,N/A,,Overcast,230,2013-09-10 07:54:00
1:54 AM,-9999,-9999,N/A,-9999,-9999.0,SW,3.5,-,N/A,,Overcast,220,2013-09-10 08:54:00
2:54 AM,-9999,-9999,N/A,-9999,-9999.0,Calm,Calm,-,N/A,,Overcast,0,2013-09-10 09:54:00
3:54 AM,-9999,-9999,N/A,-9999,-9999.0,Calm,Calm,-,N/A,,Overcast,0,2013-09-10 10:54:00
4:54 AM,-9999,-9999,N/A,-9999,-9999.0,Calm,Calm,-,N/A,,Overcast,0,2013-09-10 11:54:00
5:35 AM,-9999,-9999,N/A,-9999,-9999.0,Calm,Calm,-,N/A,,Overcast,0,2013-09-10 12:35:00
5:54 AM,63.5,59.0,85,29.86,5.0,Calm,Calm,-,N/A,,Overcast,0,2013-09-10 12:54:00
6:54 AM,63.3,59.0,86,29.87,4.0,East,3.5,-,N/A,,Overcast,90,2013-09-10 13:54:00
7:54 AM,64.8,57.9,78,29.88,5.0,SE,6.9,-,N/A,,Haze,130,2013-09-10 14:54:00
8:54 AM,64.8,57.0,76,29.89,5.0,SE,8.1,-,N/A,,Haze,140,2013-09-10 15:54:00
9:54 AM,68.4,57.0,67,29.91,5.0,SSE,8.1,-,N/A,,Haze,160,2013-09-10 16:54:00
10:54 AM,70.0,57.0,63,29.91,7.0,SSE,10.4,-,N/A,,Partly Cloudy,160,2013-09-10 17:54:00
11:54 AM,70.0,57.9,65,29.91,7.0,SSE,10.4,-,N/A,,Scattered Clouds,160,2013-09-10 18:54:00
12:54 PM,70.0,68.9,96,29.91,7.0,SSW,9.2,-,N/A,,Scattered Clouds,200,2013-09-10 19:54:00
1:54 PM,70.7,57.9,64,29.89,7.0,South,8.1,-,N/A,,Scattered Clouds,190,2013-09-10 20:54:00
2:54 PM,72.3,57.9,60,29.88,7.0,SW,5.8,-,N/A,,Scattered Clouds,220,2013-09-10 21:54:00
3:43 PM,71.6,57.2,60,29.88,7.0,SSW,9.2,-,N/A,,Mostly Cloudy,210,2013-09-10 22:43:00
3:54 PM,70.7,59.0,66,29.87,7.0,WSW,8.1,-,N/A,,Mostly Cloudy,240,2013-09-10 22:54:00
4:54 PM,70.0,59.0,68,29.87,7.0,SW,8.1,-,N/A,,Mostly Cloudy,220,2013-09-10 23:54:00
5:16 PM,69.8,59.0,68,29.87,7.0,SW,6.9,-,N/A,,Scattered Clouds,220,2013-09-11 00:16:00
5:54 PM,67.5,59.0,74,29.87,7.0,SSW,3.5,-,N/A,,Scattered Clouds,200,2013-09-11 00:54:00
6:54 PM,66.0,59.0,78,29.88,7.0,SSW,4.6,-,N/A,,Scattered Clouds,210,2013-09-11 01:54:00
7:54 PM,64.9,57.9,78,29.89,7.0,West,3.5,-,N/A,,Partly Cloudy,260,2013-09-11 02:54:00
8:54 PM,64.4,57.9,79,29.91,7.0,West,3.5,-,N/A,,Partly Cloudy,280,2013-09-11 03:54:00
9:54 PM,64.4,59.0,83,29.94,7.0,West,3.5,-,N/A,,Partly Cloudy,280,2013-09-11 04:54:00
10:54 PM,63.1,57.9,83,29.94,7.0,Calm,Calm,-,N/A,,Partly Cloudy,0,2013-09-11 05:54:00
11:54 PM,63.1,57.9,83,29.94,7.0,Calm,Calm,-,N/A,,Clear,0,2013-09-11 06:54:00